Time;durP1;ratioP1;P1;durP2;ratioP2;P2;SDS_P1;SDS_P2;PMS_P1;PMS_P2;Temp;Humidity;BMP_temperature;BMP_pressure;BME280_temperature;BME280_humidity;BME280_pressure;Samples;Min_cycle;Max_cycle;Signal;HPM_P1;HPM_P2
2023/10/15 15:56:44;;;;;;;1.10;0.70;;;;;;;15.83;63.76;102293.50;5086652;27;20779;-60
2023/10/15 15:59:09;;;;;;;4.40;1.00;;;;;;;15.86;63.75;102290.66;5081955;28;20036;-59
2023/10/15 16:01:35;;;;;;;6.47;1.30;;;;;;;15.93;64.37;102293.78;5079192;28;20036;-59
2023/10/15 16:04:01;;;;;;;5.55;1.27;;;;;;;15.99;64.15;102294.28;5073137;28;20032;-59
2023/10/15 16:06:28;;;;;;;6.47;1.40;;;;;;;16.08;63.55;102295.50;5082899;28;20028;-59
2023/10/15 16:08:53;;;;;;;9.52;1.50;;;;;;;16.13;63.37;102296.06;5079418;28;20028;-59
2023/10/15 16:11:19;;;;;;;4.60;2.03;;;;;;;16.20;63.29;102299.22;5081352;28;20082;-59
2023/10/15 16:13:47;;;;;;;2.58;1.20;;;;;;;16.26;63.12;102298.84;5077525;28;20052;-59
2023/10/15 16:16:12;;;;;;;5.63;1.48;;;;;;;16.32;63.07;102300.28;5074973;28;20036;-58
2023/10/15 16:18:38;;;;;;;4.95;1.52;;;;;;;16.39;62.96;102305.16;5077631;28;20029;-57
2023/10/15 16:21:03;;;;;;;11.43;1.83;;;;;;;16.47;62.97;102304.63;5068441;28;20112;-58
2023/10/15 16:23:29;;;;;;;6.82;2.50;;;;;;;16.58;62.72;102314.66;5077160;28;20699;-60
2023/10/15 16:25:55;;;;;;;4.75;2.08;;;;;;;16.66;62.80;102312.34;5076739;28;20430;-58
2023/10/15 16:28:20;;;;;;;6.22;2.22;;;;;;;16.73;62.44;102308.28;5072180;28;20021;-59
2023/10/15 16:30:50;;;;;;;5.55;2.33;;;;;;;16.79;62.46;102307.88;5082027;28;20047;-63
2023/10/15 16:33:17;;;;;;;5.70;2.17;;;;;;;16.86;62.50;102312.88;5079853;28;20052;-58
2023/10/15 16:35:43;;;;;;;6.38;2.38;;;;;;;16.90;62.36;102304.47;5080261;28;20466;-59
2023/10/15 16:38:08;;;;;;;16.83;2.55;;;;;;;16.95;61.96;102301.50;5082137;28;20086;-58
2023/10/15 16:40:33;;;;;;;10.45;2.50;;;;;;;16.99;61.89;102314.63;5079993;28;20116;-56
2023/10/15 16:42:59;;;;;;;4.20;2.00;;;;;;;17.04;61.77;102314.34;5075853;28;20060;-57
2023/10/15 16:45:24;;;;;;;5.95;2.13;;;;;;;17.10;61.92;102310.38;5081920;28;20027;-59
2023/10/15 16:47:50;;;;;;;4.65;2.22;;;;;;;17.15;61.74;102317.16;5076943;28;20474;-59
2023/10/15 16:50:16;;;;;;;12.45;3.20;;;;;;;17.19;61.50;102315.97;5076034;28;20020;-59
2023/10/15 16:52:42;;;;;;;8.13;2.63;;;;;;;17.24;61.32;102318.34;5080948;28;20024;-59
2023/10/15 16:55:07;;;;;;;10.40;2.80;;;;;;;17.28;61.13;102322.53;5085433;28;20508;-58
2023/10/15 16:57:34;;;;;;;6.05;2.72;;;;;;;17.30;61.02;102317.91;5077467;28;20115;-64
2023/10/15 17:00:00;;;;;;;6.30;2.53;;;;;;;17.34;60.89;102323.94;5074829;28;20052;-64
2023/10/15 17:02:27;;;;;;;4.50;2.45;;;;;;;17.37;60.84;102334.50;5079064;28;20032;-64
2023/10/15 17:04:56;;;;;;;6.75;2.55;;;;;;;17.37;60.86;102332.69;5078033;28;20036;-66
2023/10/15 17:07:24;;;;;;;7.40;2.92;;;;;;;17.38;60.56;102336.22;5069950;28;20115;-66
2023/10/15 17:09:50;;;;;;;8.48;2.60;;;;;;;17.38;60.71;102344.31;5064010;28;20043;-66
2023/10/15 17:12:16;;;;;;;8.98;3.00;;;;;;;17.39;60.72;102348.72;5064397;28;20439;-71
2023/10/15 17:14:41;;;;;;;7.45;3.25;;;;;;;17.39;60.53;102356.81;5066326;28;20128;-61
2023/10/15 17:17:07;;;;;;;5.95;2.65;;;;;;;17.42;60.62;102356.63;5062573;28;20033;-61
2023/10/15 17:19:33;;;;;;;14.73;3.10;;;;;;;17.46;60.91;102358.13;5064465;28;20031;-58
2023/10/15 17:22:02;;;;;;;16.05;3.00;;;;;;;17.56;60.56;102366.41;5069497;28;20111;-49
2023/10/15 17:24:30;;;;;;;7.22;3.30;;;;;;;17.54;60.26;102362.97;5061403;28;20053;-49
2023/10/15 17:26:56;;;;;;;8.82;3.08;;;;;;;17.51;60.30;102369.41;5064106;28;20035;-50
2023/10/15 17:29:24;;;;;;;11.23;3.13;;;;;;;17.47;60.37;102367.91;5039012;28;20112;-50
2023/10/15 17:31:54;;;;;;;6.50;3.28;;;;;;;17.45;60.47;102366.28;5062298;28;20033;-49
2023/10/15 17:34:26;;;;;;;9.45;2.67;;;;;;;17.43;60.85;102371.78;5062695;28;20025;-50
2023/10/15 17:36:51;;;;;;;9.75;2.70;;;;;;;17.42;60.69;102369.19;5058717;28;20041;-50
2023/10/15 17:39:16;;;;;;;6.35;2.78;;;;;;;17.41;60.81;102373.72;5065750;28;20036;-50
2023/10/15 17:41:47;;;;;;;18.63;4.10;;;;;;;17.43;61.49;102379.84;5066576;28;20402;-54
2023/10/15 17:44:14;;;;;;;8.23;2.35;;;;;;;17.42;60.60;102380.84;5059470;28;20081;-53
2023/10/15 17:46:40;;;;;;;9.15;3.10;;;;;;;17.43;60.74;102371.78;5061440;28;20048;-55
2023/10/15 17:49:06;;;;;;;10.55;3.17;;;;;;;17.43;60.53;102379.84;5067468;28;20155;-54
2023/10/15 17:51:32;;;;;;;13.40;3.33;;;;;;;17.43;60.62;102382.56;5061448;28;20039;-54
2023/10/15 17:53:57;;;;;;;5.80;2.65;;;;;;;17.42;60.36;102380.84;5066205;28;20105;-54
2023/10/15 17:56:23;;;;;;;9.43;3.42;;;;;;;17.41;60.41;102384.50;5063903;28;20040;-55
2023/10/15 17:58:48;;;;;;;9.02;2.95;;;;;;;17.43;60.47;102377.16;5063866;28;20044;-57
2023/10/15 18:01:14;;;;;;;7.55;2.97;;;;;;;17.46;60.43;102371.59;5063687;28;20055;-55
2023/10/15 18:03:39;;;;;;;7.65;3.05;;;;;;;17.50;60.55;102377.63;5064110;28;20051;-54
2023/10/15 18:06:08;;;;;;;7.40;2.90;;;;;;;17.52;60.46;102371.16;5063027;28;20081;-53
2023/10/15 18:08:36;;;;;;;10.23;3.45;;;;;;;17.53;60.49;102372.00;5072408;28;20092;-54
2023/10/15 18:11:02;;;;;;;12.38;3.53;;;;;;;17.56;60.59;102382.59;5066589;28;20408;-54
2023/10/15 18:13:27;;;;;;;7.57;3.35;;;;;;;17.55;60.36;102379.03;5062887;28;20032;-54
2023/10/15 18:15:53;;;;;;;9.73;2.90;;;;;;;17.59;60.25;102382.34;5058501;28;20090;-48
2023/10/15 18:18:18;;;;;;;22.65;3.58;;;;;;;17.58;60.19;102386.03;5060166;28;20428;-48
2023/10/15 18:20:44;;;;;;;9.77;3.33;;;;;;;17.57;60.12;102382.47;5062231;28;20510;-48
2023/10/15 18:23:11;;;;;;;12.77;3.25;;;;;;;17.55;60.20;102384.41;5064049;28;20039;-48
2023/10/15 18:25:37;;;;;;;8.43;3.13;;;;;;;17.53;60.20;102399.78;5062181;28;20072;-49
2023/10/15 18:28:03;;;;;;;7.82;3.25;;;;;;;17.52;60.38;102395.38;5071217;28;20037;-47
2023/10/15 18:30:28;;;;;;;10.38;3.28;;;;;;;17.52;60.10;102392.69;5060756;28;20028;-49
2023/10/15 18:32:54;;;;;;;11.75;3.25;;;;;;;17.51;60.40;102390.97;5062424;28;20707;-49
2023/10/15 18:35:19;;;;;;;10.27;3.72;;;;;;;17.49;60.36;102387.50;5061013;28;20029;-49
2023/10/15 18:37:46;;;;;;;7.68;2.92;;;;;;;17.48;60.39;102393.88;5059670;28;20486;-49
2023/10/15 18:40:14;;;;;;;6.82;3.00;;;;;;;17.47;60.33;102400.22;5062328;28;20037;-48
2023/10/15 18:42:39;;;;;;;7.00;3.30;;;;;;;17.48;60.12;102401.09;5063269;28;20040;-48
2023/10/15 18:45:07;;;;;;;5.65;2.88;;;;;;;17.51;60.49;102412.50;5063208;28;20043;-49
2023/10/15 18:47:35;;;;;;;10.98;2.95;;;;;;;17.54;60.39;102409.63;5064016;28;20029;-49
2023/10/15 18:50:00;;;;;;;6.40;2.75;;;;;;;17.56;60.13;102410.38;5067124;28;20024;-52
2023/10/15 18:52:25;;;;;;;6.05;3.33;;;;;;;17.58;59.91;102412.97;5068186;28;20035;-53
2023/10/15 18:54:51;;;;;;;7.55;2.80;;;;;;;17.61;59.82;102412.75;5061604;28;20029;-52
2023/10/15 18:57:16;;;;;;;4.50;2.75;;;;;;;17.63;59.78;102404.56;5063024;28;20492;-51
2023/10/15 18:59:41;;;;;;;5.03;2.80;;;;;;;17.62;59.86;102406.38;5063078;28;20064;-53
2023/10/15 19:02:07;;;;;;;8.15;2.85;;;;;;;17.64;59.95;102396.38;5062894;28;20044;-45
2023/10/15 19:04:33;;;;;;;11.57;3.08;;;;;;;17.66;59.86;102398.97;5059686;28;20029;-50
2023/10/15 19:06:58;;;;;;;14.77;3.38;;;;;;;17.69;60.00;102396.06;5067796;28;20517;-53
2023/10/15 19:09:23;;;;;;;7.00;2.67;;;;;;;17.71;59.86;102399.50;5059048;28;20040;-52
2023/10/15 19:11:49;;;;;;;16.65;3.35;;;;;;;17.72;59.58;102404.78;5063503;28;20111;-54
2023/10/15 19:14:15;;;;;;;8.13;2.80;;;;;;;17.71;59.33;102404.91;5058712;28;20516;-58
2023/10/15 19:16:40;;;;;;;9.85;3.13;;;;;;;17.70;59.30;102392.38;5064972;28;20056;-53
2023/10/15 19:19:10;;;;;;;8.55;3.00;;;;;;;17.71;59.50;102402.22;5066500;28;20071;-49
2023/10/15 19:21:35;;;;;;;12.80;3.47;;;;;;;17.68;59.40;102407.78;5059568;28;20124;-53
2023/10/15 19:24:01;;;;;;;12.93;3.53;;;;;;;17.68;59.79;102399.72;5067405;28;20538;-55
2023/10/15 19:26:26;;;;;;;16.58;3.10;;;;;;;17.65;59.39;102403.50;5064550;28;20037;-55
2023/10/15 19:28:52;;;;;;;7.03;2.80;;;;;;;17.65;59.61;102410.69;5057875;28;20067;-56
2023/10/15 19:31:18;;;;;;;14.95;3.25;;;;;;;17.62;59.49;102411.78;5059486;28;20443;-55
2023/10/15 19:33:44;;;;;;;7.18;2.70;;;;;;;17.62;59.53;102414.47;5063856;28;20036;-55
2023/10/15 19:36:09;;;;;;;7.25;2.45;;;;;;;17.59;59.59;102415.56;5066929;28;20029;-56
2023/10/15 19:38:34;;;;;;;7.05;2.67;;;;;;;17.53;59.67;102415.94;5068812;28;20035;-56
2023/10/15 19:41:00;;;;;;;8.60;2.47;;;;;;;17.52;59.64;102411.56;5065314;28;20474;-56
2023/10/15 19:43:28;;;;;;;9.48;2.85;;;;;;;17.48;59.51;102418.13;5064278;28;21145;-56
2023/10/15 19:45:54;;;;;;;17.98;2.67;;;;;;;17.49;59.62;102421.66;5068364;28;20458;-56
2023/10/15 19:48:19;;;;;;;5.93;2.70;;;;;;;17.46;59.48;102422.75;5059260;28;20095;-56
2023/10/15 19:50:46;;;;;;;5.63;2.70;;;;;;;17.44;59.58;102418.41;5063216;28;20120;-56
2023/10/15 19:53:12;;;;;;;6.60;2.63;;;;;;;17.43;59.54;102428.31;5057704;28;20367;-56
2023/10/15 19:55:38;;;;;;;5.55;2.30;;;;;;;17.41;59.69;102432.09;5064331;28;20040;-56
2023/10/15 19:58:03;;;;;;;8.65;2.30;;;;;;;17.37;59.45;102431.44;5068341;28;20436;-56
2023/10/15 20:00:30;;;;;;;4.97;2.33;;;;;;;17.35;59.60;102434.22;5060551;28;20491;-56
2023/10/15 20:02:55;;;;;;;3.67;2.38;;;;;;;17.33;59.78;102436.16;5062983;28;20072;-55
2023/10/15 20:05:21;;;;;;;3.55;2.28;;;;;;;17.30;59.61;102435.50;5063493;28;20123;-56
2023/10/15 20:07:49;;;;;;;4.43;2.22;;;;;;;17.27;59.74;102441.09;5059388;28;20082;-56
2023/10/15 20:10:15;;;;;;;8.38;2.30;;;;;;;17.24;59.95;102441.31;5067621;28;20090;-56
2023/10/15 20:12:46;;;;;;;6.40;2.13;;;;;;;17.22;59.73;102440.56;5061918;28;20032;-56
2023/10/15 20:15:16;;;;;;;6.40;2.38;;;;;;;17.21;59.78;102445.09;5058971;28;20112;-56
2023/10/15 20:17:46;;;;;;;6.55;2.55;;;;;;;17.17;59.89;102447.09;5058300;28;20461;-56
2023/10/15 20:20:12;;;;;;;9.32;2.28;;;;;;;17.14;59.80;102444.59;5062426;28;20029;-56
2023/10/15 20:22:38;;;;;;;6.03;2.58;;;;;;;17.13;59.83;102444.72;5067249;28;20499;-56
2023/10/15 20:25:07;;;;;;;2.75;1.80;;;;;;;17.10;59.89;102440.41;5061612;28;20033;-56
2023/10/15 20:27:39;;;;;;;3.78;2.08;;;;;;;17.08;60.00;102442.34;5064442;28;20047;-56
2023/10/15 20:30:05;;;;;;;;;;;;;;;17.15;60.17;102445.47;5072791;28;20024;-56
2023/10/15 20:32:31;;;;;;;3.13;1.60;;;;;;;17.04;60.16;102438.13;5066306;28;20002;-56
2023/10/15 20:34:56;;;;;;;2.72;1.63;;;;;;;17.00;60.04;102439.25;5056519;28;20017;-56
2023/10/15 20:37:22;;;;;;;3.22;1.73;;;;;;;16.97;60.07;102440.34;5064566;28;20043;-56
2023/10/15 20:39:47;;;;;;;2.10;1.50;;;;;;;16.95;60.17;102436.88;5064645;28;20363;-56
2023/10/15 20:42:13;;;;;;;2.72;1.80;;;;;;;16.96;60.05;102440.44;5063031;28;20429;-56
2023/10/15 20:44:39;;;;;;;4.22;1.65;;;;;;;16.92;60.03;102434.38;5068347;28;20040;-57
2023/10/15 20:47:05;;;;;;;3.38;1.63;;;;;;;16.91;60.31;102437.19;5071624;28;20036;-56
2023/10/15 20:49:30;;;;;;;2.05;1.80;;;;;;;16.89;60.08;102442.69;5071471;28;20028;-56
2023/10/15 20:51:56;;;;;;;3.40;1.90;;;;;;;16.87;59.93;102449.09;5070385;28;20035;-56
2023/10/15 20:54:21;;;;;;;5.07;1.90;;;;;;;16.86;60.02;102450.06;5069210;28;20112;-56
2023/10/15 20:56:47;;;;;;;2.70;1.60;;;;;;;16.85;60.02;102451.91;5069276;28;20131;-56
2023/10/15 20:59:13;;;;;;;2.00;1.40;;;;;;;16.83;60.03;102443.09;5062303;28;20056;-56
2023/10/15 21:01:38;;;;;;;4.45;1.80;;;;;;;16.81;59.90;102435.06;5074269;28;20068;-56
2023/10/15 21:04:04;;;;;;;2.75;1.42;;;;;;;16.80;60.09;102435.16;5069909;28;20078;-56
2023/10/15 21:06:29;;;;;;;3.25;1.77;;;;;;;16.78;60.03;102435.25;5068083;28;20444;-55
2023/10/15 21:08:57;;;;;;;2.17;1.63;;;;;;;16.77;60.16;102430.88;5071801;28;20085;-56
2023/10/15 21:11:23;;;;;;;2.90;1.52;;;;;;;16.76;60.06;102431.81;5069041;28;20475;-56
2023/10/15 21:13:49;;;;;;;3.75;1.42;;;;;;;16.74;60.12;102436.44;5068673;28;20031;-56
2023/10/15 21:16:14;;;;;;;3.45;1.60;;;;;;;16.72;60.37;102427.59;5075109;28;20028;-56
2023/10/15 21:18:42;;;;;;;3.47;1.40;;;;;;;16.72;60.22;102419.53;5068183;28;20028;-56
2023/10/15 21:21:07;;;;;;;3.78;1.60;;;;;;;16.71;60.29;102419.63;5067886;28;20386;-56
2023/10/15 21:23:33;;;;;;;2.42;1.75;;;;;;;16.69;60.40;102408.94;5067951;28;20055;-56
2023/10/15 21:25:58;;;;;;;2.85;1.75;;;;;;;16.68;60.17;102412.63;5067672;28;20041;-56
2023/10/15 21:28:24;;;;;;;3.95;1.52;;;;;;;16.67;60.21;102407.34;5069791;28;20058;-56
2023/10/15 21:30:49;;;;;;;2.15;1.30;;;;;;;16.65;60.31;102417.34;5073458;28;20111;-56
2023/10/15 21:33:14;;;;;;;1.60;1.23;;;;;;;16.63;60.02;102414.75;5064986;28;20471;-56
2023/10/15 21:35:40;;;;;;;2.90;1.55;;;;;;;16.64;60.10;102421.84;5067046;28;20028;-56
2023/10/15 21:38:05;;;;;;;2.88;1.50;;;;;;;16.63;60.29;102414.75;5075110;28;20073;-56
2023/10/15 21:40:32;;;;;;;2.47;1.25;;;;;;;16.61;60.17;102416.66;5074310;28;20117;-56
2023/10/15 21:42:57;;;;;;;2.45;1.30;;;;;;;16.60;60.00;102409.53;5066934;28;20044;-56
2023/10/15 21:45:23;;;;;;;2.80;1.40;;;;;;;16.60;59.99;102414.94;5066581;28;20124;-56
2023/10/15 21:47:48;;;;;;;1.70;1.05;;;;;;;16.59;60.22;102413.22;5075683;28;20086;-56
2023/10/15 21:50:15;;;;;;;1.98;1.20;;;;;;;16.58;60.07;102406.09;5072510;28;20037;-56
2023/10/15 21:52:41;;;;;;;2.17;1.30;;;;;;;16.56;60.17;102408.03;5067464;28;20042;-56
2023/10/15 21:55:10;;;;;;;2.03;1.80;;;;;;;16.56;60.21;102410.72;5068298;28;20057;-57
2023/10/15 21:57:35;;;;;;;1.45;1.02;;;;;;;16.55;60.18;102417.06;5071665;28;20475;-56
2023/10/15 22:00:01;;;;;;;1.55;1.08;;;;;;;16.55;60.16;102411.69;5067021;28;20028;-56
2023/10/15 22:02:26;;;;;;;2.00;1.30;;;;;;;16.53;60.11;102402.88;5066922;28;20086;-56
2023/10/15 22:04:51;;;;;;;1.60;1.20;;;;;;;16.52;60.19;102410.03;5066053;28;20037;-56
2023/10/15 22:07:18;;;;;;;1.63;1.23;;;;;;;16.50;60.29;102411.97;5066882;28;20063;-56
2023/10/15 22:09:44;;;;;;;1.77;1.20;;;;;;;16.50;60.25;102411.09;5067656;28;20056;-56
2023/10/15 22:12:09;;;;;;;1.52;1.42;;;;;;;16.49;60.16;102412.09;5066628;28;20064;-56
2023/10/15 22:14:34;;;;;;;1.92;1.20;;;;;;;16.48;59.95;102410.34;5076578;28;20035;-56
2023/10/15 22:17:00;;;;;;;1.38;1.20;;;;;;;16.47;60.02;102408.59;5066457;28;20081;-56
2023/10/15 22:19:27;;;;;;;1.23;1.00;;;;;;;16.46;59.88;102398.84;5068956;28;20043;-56
2023/10/15 22:21:53;;;;;;;1.77;1.10;;;;;;;16.45;59.97;102405.16;5070487;28;20028;-56
2023/10/15 22:24:22;;;;;;;1.90;1.05;;;;;;;16.45;60.02;102403.34;5067600;28;20032;-56
2023/10/15 22:26:52;;;;;;;2.05;1.20;;;;;;;16.44;59.90;102398.94;5066099;28;20037;-56
2023/10/15 22:29:22;;;;;;;1.95;1.30;;;;;;;16.42;59.86;102395.47;5069788;28;20033;-56
2023/10/15 22:31:50;;;;;;;2.03;1.40;;;;;;;16.42;60.40;102395.47;5066905;28;20463;-56
2023/10/15 22:34:16;;;;;;;1.95;1.20;;;;;;;16.39;59.93;102396.53;5067063;28;20494;-56
2023/10/15 22:36:41;;;;;;;1.02;0.93;;;;;;;16.39;59.90;102396.53;5067337;28;20029;-56
2023/10/15 22:39:07;;;;;;;2.05;0.93;;;;;;;16.38;59.88;102400.19;5066771;28;20039;-56
2023/10/15 22:41:32;;;;;;;2.05;0.90;;;;;;;16.38;60.29;102391.25;5067129;28;20064;-56
2023/10/15 22:43:58;;;;;;;2.45;1.25;;;;;;;16.37;59.88;102392.19;5068862;28;20504;-56
2023/10/15 22:46:23;;;;;;;2.13;1.30;;;;;;;16.36;59.91;102391.34;5064183;28;20123;-56
2023/10/15 22:48:49;;;;;;;2.70;1.63;;;;;;;16.35;59.94;102389.59;5065322;28;20060;-56
2023/10/15 22:51:15;;;;;;;1.45;1.30;;;;;;;16.34;59.86;102389.72;5065812;28;20449;-56
2023/10/15 22:53:42;;;;;;;2.13;1.40;;;;;;;16.33;59.86;102391.53;5069202;28;20032;-56
2023/10/15 22:56:08;;;;;;;2.28;1.10;;;;;;;16.32;59.91;102389.81;5068532;28;20102;-56
2023/10/15 22:58:34;;;;;;;1.33;1.08;;;;;;;16.32;60.13;102387.13;5066651;28;20115;-56
2023/10/15 23:01:00;;;;;;;1.90;1.15;;;;;;;16.32;59.76;102386.28;5075562;28;20131;-56
2023/10/15 23:03:28;;;;;;;1.80;1.17;;;;;;;16.31;59.90;102385.41;5066060;28;20020;-56
2023/10/15 23:05:54;;;;;;;1.20;1.10;;;;;;;16.29;60.11;102390.00;5063132;28;20035;-56
2023/10/15 23:08:19;;;;;;;1.40;1.10;;;;;;;16.27;60.15;102386.56;5069875;28;20395;-56
2023/10/15 23:10:46;;;;;;;1.67;1.20;;;;;;;16.28;59.81;102390.09;5070051;28;20466;-56
2023/10/15 23:13:14;;;;;;;1.90;1.27;;;;;;;16.27;59.89;102388.38;5069381;28;20049;-56
2023/10/15 23:15:40;;;;;;;1.80;1.23;;;;;;;16.26;59.71;102390.22;5061915;28;20445;-56
2023/10/15 23:18:06;;;;;;;2.17;1.33;;;;;;;16.26;60.04;102389.34;5065199;28;20037;-56
2023/10/15 23:20:35;;;;;;;2.92;1.10;;;;;;;16.24;59.92;102389.47;5064461;28;20379;-56
2023/10/15 23:23:05;;;;;;;1.20;1.00;;;;;;;16.23;59.98;102376.97;5065682;28;20025;-56
2023/10/15 23:25:31;;;;;;;1.77;1.38;;;;;;;16.22;60.08;102383.28;5065579;28;20036;-56
2023/10/15 23:28:01;;;;;;;2.40;1.30;;;;;;;16.22;59.86;102389.53;5061877;28;20467;-56
2023/10/15 23:30:28;;;;;;;2.10;1.33;;;;;;;16.21;59.83;102387.81;5065183;28;20468;-56
2023/10/15 23:32:55;;;;;;;3.03;1.05;;;;;;;16.21;59.95;102392.31;5065391;28;20043;-56
2023/10/15 23:35:24;;;;;;;1.27;1.15;;;;;;;16.20;59.75;102390.59;5063312;28;20455;-56
2023/10/15 23:37:50;;;;;;;1.88;1.02;;;;;;;16.19;59.79;102386.19;5063172;28;20063;-56
2023/10/15 23:40:21;;;;;;;2.05;1.30;;;;;;;16.18;59.89;102384.44;5064962;28;20033;-56
2023/10/15 23:42:48;;;;;;;1.93;1.70;;;;;;;16.17;59.86;102386.28;5062996;28;20056;-56
2023/10/15 23:45:14;;;;;;;1.20;1.10;;;;;;;16.15;59.91;102382.81;5065466;28;20079;-56
2023/10/15 23:47:39;;;;;;;2.05;1.17;;;;;;;16.16;59.67;102378.31;5065980;28;20028;-56
2023/10/15 23:50:16;;;;;;;1.73;1.10;;;;;;;16.15;59.80;102381.97;5069368;28;20032;-56
2023/10/15 23:52:43;;;;;;;1.45;1.20;;;;;;;16.15;59.69;102381.97;5064502;28;20131;-56
2023/10/15 23:55:16;;;;;;;2.58;1.30;;;;;;;16.13;60.03;102376.69;5070403;28;20056;-56
2023/10/15 23:57:51;;;;;;;1.92;1.38;;;;;;;16.12;60.03;102376.78;5061238;28;20044;-56
